ELL15Y EHAM-EETN
Flight info
| Callsign | ELL15Y |
|---|---|
| Flight time | 2h 3m |
| Altitude | 41000 |
| Route | ANDIK N873 JUIST DCT RAXLU DCT LANGO DCT KOTAM DCT DEREX DCT SULUN |
| Aircraft | B736/M-SDE2E3FGHIRWXY/LB1 |
Departure
| Time | 2026-04-28 18:21 |
|---|---|
| Airport | Amsterdam Airport Schiphol (EHAM) |
Arrival
| Time | 2026-04-28 20:24 |
|---|---|
| Airport | Lennart Meri Tallinn Airport (EETN) |
| Time | Latitude | Longitude | Altitude | Speed | Heading |
|---|---|---|---|---|---|
| 2026-04-28 17:50 | 52.31259 | 4.76624 | -2 ft | 0 kts | 123° |
| 2026-04-28 18:03 | 52.31260 | 4.76621 | -2 ft | 2 kts | 123° |
| 2026-04-28 18:03 | 52.31275 | 4.76586 | -2 ft | 4 kts | 123° |
| 2026-04-28 18:03 | 52.31289 | 4.76550 | -2 ft | 4 kts | 123° |
| 2026-04-28 18:04 | 52.31303 | 4.76517 | -2 ft | 4 kts | 102° |
| 2026-04-28 18:04 | 52.31297 | 4.76485 | -2 ft | 4 kts | 39° |
| 2026-04-28 18:04 | 52.31276 | 4.76461 | -2 ft | 2 kts | 33° |
| 2026-04-28 18:04 | 52.31275 | 4.76460 | -2 ft | 0 kts | 33° |
| 2026-04-28 18:08 | 52.31283 | 4.76468 | -2 ft | 4 kts | 33° |
| 2026-04-28 18:08 | 52.31319 | 4.76506 | -2 ft | 9 kts | 32° |
| 2026-04-28 18:08 | 52.31385 | 4.76578 | -2 ft | 13 kts | 34° |
| 2026-04-28 18:09 | 52.31457 | 4.76656 | -2 ft | 9 kts | 34° |
| 2026-04-28 18:09 | 52.31480 | 4.76674 | -2 ft | 3 kts | 18° |
| 2026-04-28 18:09 | 52.31509 | 4.76675 | -2 ft | 5 kts | 359° |
| 2026-04-28 18:09 | 52.31550 | 4.76619 | -2 ft | 12 kts | 284° |
| 2026-04-28 18:10 | 52.31545 | 4.76433 | -2 ft | 21 kts | 267° |
| 2026-04-28 18:10 | 52.31537 | 4.76166 | -2 ft | 26 kts | 266° |
| 2026-04-28 18:10 | 52.31526 | 4.75859 | -2 ft | 29 kts | 266° |
| 2026-04-28 18:10 | 52.31515 | 4.75517 | -2 ft | 31 kts | 266° |
| 2026-04-28 18:11 | 52.31504 | 4.75175 | -2 ft | 28 kts | 266° |
| 2026-04-28 18:11 | 52.31493 | 4.74873 | -2 ft | 26 kts | 267° |
| 2026-04-28 18:11 | 52.31483 | 4.74592 | -2 ft | 24 kts | 267° |
| 2026-04-28 18:11 | 52.31481 | 4.74351 | -2 ft | 18 kts | 289° |
| 2026-04-28 18:12 | 52.31588 | 4.74302 | -2 ft | 17 kts | 4° |
| 2026-04-28 18:12 | 52.31705 | 4.74313 | -2 ft | 16 kts | 3° |
| 2026-04-28 18:12 | 52.31817 | 4.74324 | -2 ft | 16 kts | 4° |
| 2026-04-28 18:12 | 52.31948 | 4.74338 | -2 ft | 24 kts | 4° |
| 2026-04-28 18:13 | 52.32030 | 4.74243 | -2 ft | 16 kts | 270° |
| 2026-04-28 18:13 | 52.32037 | 4.73995 | -3 ft | 29 kts | 276° |
| 2026-04-28 18:13 | 52.32050 | 4.73686 | -2 ft | 26 kts | 273° |
| 2026-04-28 18:13 | 52.32070 | 4.73416 | -2 ft | 25 kts | 292° |
| 2026-04-28 18:14 | 52.32192 | 4.73215 | -2 ft | 26 kts | 318° |
| 2026-04-28 18:14 | 52.32335 | 4.73016 | -2 ft | 28 kts | 319° |
| 2026-04-28 18:14 | 52.32471 | 4.72816 | -2 ft | 26 kts | 318° |
| 2026-04-28 18:14 | 52.32603 | 4.72634 | -2 ft | 24 kts | 322° |
| 2026-04-28 18:15 | 52.32719 | 4.72453 | -2 ft | 23 kts | 311° |
| 2026-04-28 18:15 | 52.32821 | 4.72261 | -2 ft | 22 kts | 311° |
| 2026-04-28 18:15 | 52.32921 | 4.72070 | -2 ft | 23 kts | 311° |
| 2026-04-28 18:15 | 52.33027 | 4.71876 | -2 ft | 24 kts | 313° |
| 2026-04-28 18:16 | 52.33129 | 4.71684 | -2 ft | 20 kts | 307° |
| 2026-04-28 18:16 | 52.33129 | 4.71465 | -2 ft | 20 kts | 270° |
| 2026-04-28 18:16 | 52.33190 | 4.71315 | -2 ft | 16 kts | 311° |
| 2026-04-28 18:16 | 52.33263 | 4.71180 | -2 ft | 9 kts | 313° |
| 2026-04-28 18:17 | 52.33305 | 4.71104 | -3 ft | 0 kts | 312° |
| 2026-04-28 18:17 | 52.33306 | 4.71102 | -3 ft | 1 kts | 311° |
| 2026-04-28 18:17 | 52.33308 | 4.71098 | -3 ft | 0 kts | 311° |
| 2026-04-28 18:19 | 52.33354 | 4.71017 | -3 ft | 20 kts | 314° |
| 2026-04-28 18:19 | 52.33460 | 4.70947 | -3 ft | 0 kts | 2° |
| 2026-04-28 18:20 | 52.33633 | 4.70966 | -1 ft | 61 kts | 4° |
| 2026-04-28 18:20 | 52.34306 | 4.71019 | -3 ft | 128 kts | 3° |
| 2026-04-28 18:21 | 52.35255 | 4.71065 | 478 ft | 131 kts | 9° |
| 2026-04-28 18:21 | 52.36134 | 4.71173 | 1281 ft | 125 kts | 13° |
| 2026-04-28 18:21 | 52.37015 | 4.71283 | 1859 ft | 134 kts | 13° |
| 2026-04-28 18:21 | 52.38024 | 4.71402 | 2194 ft | 163 kts | 12° |
| 2026-04-28 18:22 | 52.39271 | 4.71531 | 2486 ft | 193 kts | 11° |
| 2026-04-28 18:22 | 52.40704 | 4.71660 | 2728 ft | 217 kts | 9° |
| 2026-04-28 18:22 | 52.42254 | 4.71782 | 3193 ft | 227 kts | 9° |
| 2026-04-28 18:22 | 52.43832 | 4.71907 | 3719 ft | 234 kts | 9° |
| 2026-04-28 18:23 | 52.45545 | 4.72074 | 4037 ft | 256 kts | 8° |
| 2026-04-28 18:23 | 52.47349 | 4.72250 | 4786 ft | 263 kts | 8° |
| 2026-04-28 18:23 | 52.47843 | 4.72297 | 5003 ft | 264 kts | 9° |
| 2026-04-28 18:23 | 52.49689 | 4.72475 | 5846 ft | 267 kts | 7° |
| 2026-04-28 18:24 | 52.51552 | 4.72653 | 6750 ft | 269 kts | 7° |
| 2026-04-28 18:24 | 52.52157 | 4.72741 | 7024 ft | 270 kts | 12° |
| 2026-04-28 18:24 | 52.54691 | 4.75292 | 8550 ft | 260 kts | 56° |
| 2026-04-28 18:24 | 52.55506 | 4.77932 | 9521 ft | 259 kts | 71° |
| 2026-04-28 18:25 | 52.56059 | 4.80806 | 10443 ft | 263 kts | 74° |
| 2026-04-28 18:25 | 52.56584 | 4.83757 | 11156 ft | 279 kts | 74° |
| 2026-04-28 18:25 | 52.57171 | 4.86977 | 11379 ft | 308 kts | 73° |
| 2026-04-28 18:26 | 52.58542 | 4.94148 | 12486 ft | 336 kts | 70° |
| 2026-04-28 18:26 | 52.59725 | 4.97477 | 13385 ft | 342 kts | 53° |
| 2026-04-28 18:26 | 52.61225 | 5.00573 | 14223 ft | 348 kts | 52° |
| 2026-04-28 18:26 | 52.62235 | 5.02628 | 14786 ft | 350 kts | 52° |
| 2026-04-28 18:27 | 52.63771 | 5.05767 | 15547 ft | 356 kts | 52° |
| 2026-04-28 18:27 | 52.65837 | 5.10031 | 16604 ft | 362 kts | 52° |
| 2026-04-28 18:27 | 52.67409 | 5.13309 | 17349 ft | 368 kts | 52° |
| 2026-04-28 18:27 | 52.68995 | 5.16632 | 18257 ft | 368 kts | 52° |
| 2026-04-28 18:28 | 52.70583 | 5.19969 | 19023 ft | 373 kts | 52° |
| 2026-04-28 18:28 | 52.71667 | 5.22251 | 19542 ft | 373 kts | 52° |
| 2026-04-28 18:28 | 52.73273 | 5.25634 | 20259 ft | 377 kts | 52° |
| 2026-04-28 18:28 | 52.74902 | 5.29073 | 20871 ft | 383 kts | 52° |
| 2026-04-28 18:29 | 52.76521 | 5.32495 | 21719 ft | 381 kts | 52° |
| 2026-04-28 18:29 | 52.78156 | 5.35954 | 22500 ft | 384 kts | 52° |
| 2026-04-28 18:29 | 52.79776 | 5.39522 | 23102 ft | 390 kts | 54° |
| 2026-04-28 18:29 | 52.81368 | 5.43191 | 23625 ft | 397 kts | 54° |
| 2026-04-28 18:30 | 52.82974 | 5.46957 | 24114 ft | 403 kts | 54° |
| 2026-04-28 18:30 | 52.84043 | 5.49476 | 24521 ft | 403 kts | 54° |
| 2026-04-28 18:30 | 52.86211 | 5.54573 | 25382 ft | 404 kts | 54° |
| 2026-04-28 18:30 | 52.87833 | 5.58379 | 25968 ft | 406 kts | 54° |
| 2026-04-28 18:31 | 52.89444 | 5.62150 | 26587 ft | 406 kts | 54° |
| 2026-04-28 18:31 | 52.91073 | 5.65962 | 27250 ft | 405 kts | 54° |
| 2026-04-28 18:31 | 52.92705 | 5.69782 | 27826 ft | 406 kts | 54° |
| 2026-04-28 18:31 | 52.94343 | 5.73620 | 28354 ft | 408 kts | 54° |
| 2026-04-28 18:32 | 52.95983 | 5.77466 | 28873 ft | 410 kts | 54° |
| 2026-04-28 18:32 | 52.97635 | 5.81343 | 29382 ft | 411 kts | 54° |
| 2026-04-28 18:32 | 52.99285 | 5.85223 | 29878 ft | 412 kts | 54° |
| 2026-04-28 18:32 | 53.00939 | 5.89119 | 30410 ft | 412 kts | 54° |
| 2026-04-28 18:33 | 53.02586 | 5.93003 | 30977 ft | 409 kts | 54° |
| 2026-04-28 18:33 | 53.04221 | 5.96865 | 31517 ft | 407 kts | 54° |
| 2026-04-28 18:33 | 53.05844 | 6.00707 | 31973 ft | 407 kts | 54° |
| 2026-04-28 18:33 | 53.07476 | 6.04574 | 32411 ft | 406 kts | 54° |
| 2026-04-28 18:34 | 53.09096 | 6.08418 | 32877 ft | 405 kts | 54° |
| 2026-04-28 18:34 | 53.10708 | 6.12251 | 33432 ft | 402 kts | 54° |
| 2026-04-28 18:34 | 53.12287 | 6.16009 | 33892 ft | 401 kts | 54° |
| 2026-04-28 18:34 | 53.13889 | 6.19828 | 34231 ft | 402 kts | 54° |
| 2026-04-28 18:35 | 53.15492 | 6.23654 | 34548 ft | 403 kts | 54° |
| 2026-04-28 18:35 | 53.17097 | 6.27491 | 34787 ft | 405 kts | 54° |
| 2026-04-28 18:35 | 53.18712 | 6.31359 | 35012 ft | 408 kts | 54° |
| 2026-04-28 18:35 | 53.20337 | 6.35257 | 35266 ft | 409 kts | 54° |
| 2026-04-28 18:36 | 53.21963 | 6.39163 | 35512 ft | 411 kts | 54° |
| 2026-04-28 18:36 | 53.23602 | 6.43105 | 35733 ft | 413 kts | 54° |
| 2026-04-28 18:36 | 53.25241 | 6.47056 | 35973 ft | 414 kts | 54° |
| 2026-04-28 18:36 | 53.26883 | 6.51018 | 36207 ft | 416 kts | 54° |
| 2026-04-28 18:37 | 53.28532 | 6.55004 | 36435 ft | 418 kts | 54° |
| 2026-04-28 18:37 | 53.30186 | 6.59009 | 36646 ft | 419 kts | 54° |
| 2026-04-28 18:37 | 53.31826 | 6.62985 | 36873 ft | 421 kts | 54° |
| 2026-04-28 18:37 | 53.33490 | 6.67027 | 37088 ft | 422 kts | 54° |
| 2026-04-28 18:38 | 53.35157 | 6.71083 | 37289 ft | 425 kts | 54° |
| 2026-04-28 18:38 | 53.36843 | 6.75188 | 37413 ft | 429 kts | 54° |
| 2026-04-28 18:38 | 53.38531 | 6.79309 | 37677 ft | 429 kts | 54° |
| 2026-04-28 18:38 | 53.40221 | 6.83439 | 37926 ft | 430 kts | 54° |
| 2026-04-28 18:39 | 53.41913 | 6.87583 | 38119 ft | 432 kts | 54° |
| 2026-04-28 18:39 | 53.43610 | 6.91747 | 38301 ft | 433 kts | 54° |
| 2026-04-28 18:39 | 53.45314 | 6.95934 | 38531 ft | 434 kts | 54° |
| 2026-04-28 18:39 | 53.47011 | 7.00109 | 38773 ft | 434 kts | 54° |
| 2026-04-28 18:40 | 53.48715 | 7.04310 | 38963 ft | 436 kts | 54° |
| 2026-04-28 18:40 | 53.50421 | 7.08521 | 39179 ft | 435 kts | 54° |
| 2026-04-28 18:40 | 53.52128 | 7.12744 | 39350 ft | 436 kts | 54° |
| 2026-04-28 18:40 | 53.53827 | 7.16953 | 39617 ft | 434 kts | 54° |
| 2026-04-28 18:41 | 53.55517 | 7.21148 | 39869 ft | 433 kts | 54° |
| 2026-04-28 18:41 | 53.57186 | 7.25296 | 39996 ft | 434 kts | 54° |
| 2026-04-28 18:41 | 53.58883 | 7.29521 | 40095 ft | 437 kts | 54° |
| 2026-04-28 18:42 | 53.62301 | 7.38049 | 40392 ft | 439 kts | 54° |
| 2026-04-28 18:42 | 53.64002 | 7.42308 | 40596 ft | 438 kts | 54° |
| 2026-04-28 18:42 | 53.65702 | 7.46570 | 40754 ft | 438 kts | 54° |
| 2026-04-28 18:42 | 53.67407 | 7.50850 | 40901 ft | 439 kts | 54° |
| 2026-04-28 18:43 | 53.69108 | 7.55129 | 41054 ft | 439 kts | 54° |
| 2026-04-28 18:43 | 53.70811 | 7.59418 | 41225 ft | 439 kts | 54° |
| 2026-04-28 18:43 | 53.72512 | 7.63712 | 41340 ft | 440 kts | 54° |
| 2026-04-28 18:44 | 53.75910 | 7.72311 | 41383 ft | 439 kts | 54° |
| 2026-04-28 18:44 | 53.80938 | 7.85088 | 41374 ft | 435 kts | 54° |
| 2026-04-28 18:45 | 53.84276 | 7.93607 | 41377 ft | 433 kts | 54° |
| 2026-04-28 18:45 | 53.87602 | 8.02124 | 41382 ft | 432 kts | 54° |
| 2026-04-28 18:46 | 53.90913 | 8.10630 | 41387 ft | 433 kts | 54° |
| 2026-04-28 18:46 | 53.94229 | 8.19178 | 41378 ft | 434 kts | 54° |
| 2026-04-28 18:47 | 53.97551 | 8.27771 | 41389 ft | 435 kts | 54° |
| 2026-04-28 18:47 | 54.00856 | 8.36351 | 41376 ft | 437 kts | 54° |
| 2026-04-28 18:48 | 54.04183 | 8.45017 | 41378 ft | 438 kts | 54° |
| 2026-04-28 18:48 | 54.07511 | 8.53716 | 41384 ft | 439 kts | 54° |
| 2026-04-28 18:49 | 54.10283 | 8.60985 | 41385 ft | 440 kts | 54° |
| 2026-04-28 18:49 | 54.14175 | 8.71229 | 41379 ft | 440 kts | 54° |
| 2026-04-28 18:50 | 54.17496 | 8.80001 | 41380 ft | 440 kts | 54° |
| 2026-04-28 18:50 | 54.20810 | 8.88786 | 41382 ft | 439 kts | 54° |
| 2026-04-28 18:51 | 54.24089 | 8.97510 | 41379 ft | 438 kts | 54° |
| 2026-04-28 18:51 | 54.27375 | 9.06284 | 41380 ft | 438 kts | 54° |
| 2026-04-28 18:52 | 54.30655 | 9.15072 | 41393 ft | 438 kts | 54° |
| 2026-04-28 18:52 | 54.33927 | 9.23868 | 41384 ft | 437 kts | 54° |
| 2026-04-28 18:53 | 54.37191 | 9.32676 | 41385 ft | 437 kts | 54° |
| 2026-04-28 18:53 | 54.40443 | 9.41481 | 41410 ft | 437 kts | 54° |
| 2026-04-28 18:54 | 54.43689 | 9.50301 | 41400 ft | 437 kts | 54° |
| 2026-04-28 18:54 | 54.46901 | 9.59062 | 41402 ft | 436 kts | 54° |
| 2026-04-28 18:55 | 54.49587 | 9.66410 | 41402 ft | 436 kts | 54° |
| 2026-04-28 18:55 | 54.53355 | 9.76758 | 41409 ft | 437 kts | 54° |
| 2026-04-28 18:56 | 54.56575 | 9.85634 | 41409 ft | 437 kts | 54° |
| 2026-04-28 18:56 | 54.59794 | 9.94540 | 41398 ft | 437 kts | 54° |
| 2026-04-28 18:57 | 54.62983 | 10.03394 | 41400 ft | 437 kts | 54° |
| 2026-04-28 18:57 | 54.66190 | 10.12332 | 41409 ft | 437 kts | 54° |
| 2026-04-28 18:58 | 54.69385 | 10.21265 | 41398 ft | 437 kts | 54° |
| 2026-04-28 18:58 | 54.72609 | 10.30166 | 41399 ft | 436 kts | 53° |
| 2026-04-28 18:59 | 54.76045 | 10.38800 | 41411 ft | 435 kts | 51° |
| 2026-04-28 18:59 | 54.79514 | 10.47400 | 41398 ft | 435 kts | 52° |
| 2026-04-28 19:00 | 54.82947 | 10.56031 | 41415 ft | 434 kts | 52° |
| 2026-04-28 19:00 | 54.86340 | 10.64639 | 41400 ft | 434 kts | 52° |
| 2026-04-28 19:01 | 54.89747 | 10.73315 | 41405 ft | 433 kts | 52° |
| 2026-04-28 19:01 | 54.93111 | 10.81907 | 41407 ft | 433 kts | 52° |
| 2026-04-28 19:02 | 54.96339 | 10.90792 | 41410 ft | 434 kts | 56° |
| 2026-04-28 19:02 | 54.99283 | 10.99979 | 41388 ft | 435 kts | 57° |
| 2026-04-28 19:03 | 55.02198 | 11.09218 | 41407 ft | 434 kts | 57° |
| 2026-04-28 19:03 | 55.05124 | 11.18433 | 41396 ft | 434 kts | 57° |
| 2026-04-28 19:04 | 55.08038 | 11.27588 | 41399 ft | 433 kts | 57° |
| 2026-04-28 19:04 | 55.10961 | 11.36788 | 41398 ft | 433 kts | 57° |
| 2026-04-28 19:05 | 55.13877 | 11.45997 | 41402 ft | 433 kts | 57° |
| 2026-04-28 19:05 | 55.16786 | 11.55222 | 41396 ft | 432 kts | 57° |
| 2026-04-28 19:06 | 55.19196 | 11.62890 | 41423 ft | 432 kts | 57° |
| 2026-04-28 19:06 | 55.22564 | 11.73650 | 41427 ft | 433 kts | 57° |
| 2026-04-28 19:07 | 55.25458 | 11.82935 | 41397 ft | 434 kts | 57° |
| 2026-04-28 19:07 | 55.28348 | 11.92242 | 41393 ft | 434 kts | 57° |
| 2026-04-28 19:08 | 55.31226 | 12.01549 | 41391 ft | 434 kts | 57° |
| 2026-04-28 19:08 | 55.34105 | 12.10895 | 41391 ft | 434 kts | 57° |
| 2026-04-28 19:09 | 55.36973 | 12.20241 | 41396 ft | 434 kts | 57° |
| 2026-04-28 19:09 | 55.39814 | 12.29537 | 41406 ft | 434 kts | 57° |
| 2026-04-28 19:10 | 55.42669 | 12.38917 | 41398 ft | 434 kts | 57° |
| 2026-04-28 19:10 | 55.45517 | 12.48306 | 41391 ft | 435 kts | 57° |
| 2026-04-28 19:11 | 55.48362 | 12.57726 | 41389 ft | 435 kts | 58° |
| 2026-04-28 19:11 | 55.51181 | 12.67097 | 41388 ft | 435 kts | 58° |
| 2026-04-28 19:12 | 55.54017 | 12.76561 | 41389 ft | 436 kts | 58° |
| 2026-04-28 19:12 | 55.56842 | 12.86027 | 41399 ft | 436 kts | 58° |
| 2026-04-28 19:13 | 55.59669 | 12.95541 | 41422 ft | 436 kts | 58° |
| 2026-04-28 19:13 | 55.62488 | 13.05063 | 41406 ft | 437 kts | 58° |
| 2026-04-28 19:14 | 55.65287 | 13.14555 | 41374 ft | 438 kts | 58° |
| 2026-04-28 19:14 | 55.68104 | 13.24146 | 41370 ft | 438 kts | 58° |
| 2026-04-28 19:15 | 55.70437 | 13.32124 | 41374 ft | 438 kts | 58° |
| 2026-04-28 19:15 | 55.72761 | 13.40094 | 41372 ft | 438 kts | 58° |
| 2026-04-28 19:16 | 55.76022 | 13.51325 | 41376 ft | 437 kts | 58° |
| 2026-04-28 19:16 | 55.78803 | 13.60947 | 41370 ft | 437 kts | 58° |
| 2026-04-28 19:17 | 55.81576 | 13.70579 | 41389 ft | 438 kts | 58° |
| 2026-04-28 19:17 | 55.84328 | 13.80180 | 41360 ft | 439 kts | 58° |
| 2026-04-28 19:18 | 55.87090 | 13.89857 | 41380 ft | 439 kts | 58° |
| 2026-04-28 19:18 | 55.89850 | 13.99566 | 41383 ft | 439 kts | 58° |
| 2026-04-28 19:19 | 55.92600 | 14.09280 | 41392 ft | 439 kts | 58° |
| 2026-04-28 19:19 | 55.95344 | 14.19013 | 41397 ft | 439 kts | 59° |
| 2026-04-28 19:20 | 55.98080 | 14.28758 | 41404 ft | 439 kts | 59° |
| 2026-04-28 19:20 | 56.00810 | 14.38526 | 41417 ft | 440 kts | 59° |
| 2026-04-28 19:21 | 56.03539 | 14.48327 | 41409 ft | 441 kts | 59° |
| 2026-04-28 19:21 | 56.06246 | 14.58097 | 41398 ft | 441 kts | 59° |
| 2026-04-28 19:22 | 56.08526 | 14.66354 | 41397 ft | 442 kts | 59° |
| 2026-04-28 19:22 | 56.11684 | 14.77840 | 41399 ft | 442 kts | 59° |
| 2026-04-28 19:23 | 56.14467 | 14.87666 | 41398 ft | 441 kts | 56° |
| 2026-04-28 19:23 | 56.17509 | 14.97206 | 41398 ft | 440 kts | 55° |
| 2026-04-28 19:24 | 56.20576 | 15.06648 | 41415 ft | 441 kts | 55° |
| 2026-04-28 19:24 | 56.23637 | 15.16196 | 41402 ft | 441 kts | 56° |
| 2026-04-28 19:25 | 56.26675 | 15.25793 | 41398 ft | 441 kts | 56° |
| 2026-04-28 19:25 | 56.29697 | 15.35403 | 41400 ft | 440 kts | 56° |
| 2026-04-28 19:26 | 56.32704 | 15.45007 | 41401 ft | 440 kts | 56° |
| 2026-04-28 19:26 | 56.35705 | 15.54630 | 41402 ft | 440 kts | 56° |
| 2026-04-28 19:27 | 56.38696 | 15.64255 | 41403 ft | 440 kts | 56° |
| 2026-04-28 19:27 | 56.41679 | 15.73896 | 41441 ft | 440 kts | 56° |
| 2026-04-28 19:28 | 56.44660 | 15.83569 | 41416 ft | 440 kts | 56° |
| 2026-04-28 19:28 | 56.47611 | 15.93185 | 41405 ft | 440 kts | 56° |
| 2026-04-28 19:29 | 56.50098 | 16.01317 | 41403 ft | 440 kts | 57° |
| 2026-04-28 19:29 | 56.53534 | 16.12604 | 41402 ft | 440 kts | 57° |
| 2026-04-28 19:30 | 56.56487 | 16.22343 | 41401 ft | 440 kts | 57° |
| 2026-04-28 19:30 | 56.59432 | 16.32100 | 41413 ft | 440 kts | 57° |
| 2026-04-28 19:31 | 56.62369 | 16.41869 | 41404 ft | 441 kts | 57° |
| 2026-04-28 19:31 | 56.65285 | 16.51608 | 41411 ft | 442 kts | 57° |
| 2026-04-28 19:32 | 56.68221 | 16.61454 | 41411 ft | 442 kts | 57° |
| 2026-04-28 19:32 | 56.71148 | 16.71313 | 41406 ft | 443 kts | 57° |
| 2026-04-28 19:33 | 56.74073 | 16.81207 | 41407 ft | 444 kts | 57° |
| 2026-04-28 19:33 | 56.76992 | 16.91122 | 41407 ft | 444 kts | 57° |
| 2026-04-28 19:34 | 56.79907 | 17.01068 | 41410 ft | 444 kts | 57° |
| 2026-04-28 19:34 | 56.82793 | 17.10958 | 41405 ft | 445 kts | 58° |
| 2026-04-28 19:35 | 56.85698 | 17.20952 | 41404 ft | 445 kts | 58° |
| 2026-04-28 19:35 | 56.88594 | 17.30960 | 41404 ft | 445 kts | 58° |
| 2026-04-28 19:36 | 56.91486 | 17.40998 | 41404 ft | 445 kts | 58° |
| 2026-04-28 19:36 | 56.94367 | 17.51040 | 41404 ft | 445 kts | 58° |
| 2026-04-28 19:37 | 56.96758 | 17.59407 | 41423 ft | 445 kts | 58° |
| 2026-04-28 19:37 | 57.00085 | 17.71101 | 41406 ft | 445 kts | 58° |
| 2026-04-28 19:38 | 57.02935 | 17.81164 | 41404 ft | 444 kts | 58° |
| 2026-04-28 19:38 | 57.05775 | 17.91239 | 41404 ft | 444 kts | 58° |
| 2026-04-28 19:39 | 57.08606 | 18.01323 | 41426 ft | 444 kts | 58° |
| 2026-04-28 19:39 | 57.11434 | 18.11439 | 41410 ft | 444 kts | 58° |
| 2026-04-28 19:40 | 57.14254 | 18.21575 | 41402 ft | 445 kts | 59° |
| 2026-04-28 19:40 | 57.17049 | 18.31664 | 41405 ft | 445 kts | 59° |
| 2026-04-28 19:41 | 57.19857 | 18.41845 | 41399 ft | 445 kts | 59° |
| 2026-04-28 19:41 | 57.22657 | 18.52043 | 41403 ft | 445 kts | 59° |
| 2026-04-28 19:42 | 57.25448 | 18.62251 | 41400 ft | 445 kts | 59° |
| 2026-04-28 19:42 | 57.27763 | 18.70757 | 41402 ft | 445 kts | 59° |
| 2026-04-28 19:43 | 57.31006 | 18.82723 | 41404 ft | 446 kts | 59° |
| 2026-04-28 19:43 | 57.33782 | 18.93015 | 41405 ft | 446 kts | 59° |
| 2026-04-28 19:44 | 57.36550 | 19.03327 | 41396 ft | 447 kts | 59° |
| 2026-04-28 19:44 | 57.39299 | 19.13611 | 41394 ft | 447 kts | 60° |
| 2026-04-28 19:45 | 57.42052 | 19.23961 | 41397 ft | 448 kts | 60° |
| 2026-04-28 19:45 | 57.44802 | 19.34347 | 41386 ft | 448 kts | 60° |
| 2026-04-28 19:46 | 57.47547 | 19.44762 | 41388 ft | 448 kts | 60° |
| 2026-04-28 19:46 | 57.50279 | 19.55176 | 41388 ft | 448 kts | 60° |
| 2026-04-28 19:47 | 57.52992 | 19.65566 | 41384 ft | 449 kts | 60° |
| 2026-04-28 19:47 | 57.55718 | 19.76051 | 41376 ft | 450 kts | 60° |
| 2026-04-28 19:48 | 57.58438 | 19.86566 | 41372 ft | 450 kts | 60° |
| 2026-04-28 19:48 | 57.61152 | 19.97104 | 41362 ft | 450 kts | 60° |
| 2026-04-28 19:49 | 57.63855 | 20.07649 | 41363 ft | 450 kts | 61° |
| 2026-04-28 19:49 | 57.66552 | 20.18218 | 41361 ft | 450 kts | 61° |
| 2026-04-28 19:50 | 57.71442 | 20.32958 | 41356 ft | 446 kts | 52° |
| 2026-04-28 19:51 | 57.74986 | 20.42486 | 41362 ft | 446 kts | 52° |
| 2026-04-28 19:51 | 57.78504 | 20.52086 | 41351 ft | 446 kts | 52° |
| 2026-04-28 19:52 | 57.81985 | 20.61732 | 41334 ft | 447 kts | 53° |
| 2026-04-28 19:52 | 57.85450 | 20.71414 | 41334 ft | 447 kts | 53° |
| 2026-04-28 19:53 | 57.88886 | 20.81061 | 41337 ft | 447 kts | 53° |
| 2026-04-28 19:53 | 57.92335 | 20.90781 | 41326 ft | 447 kts | 53° |
| 2026-04-28 19:54 | 57.95778 | 21.00519 | 41327 ft | 447 kts | 53° |
| 2026-04-28 19:54 | 57.99216 | 21.10282 | 41320 ft | 447 kts | 53° |
| 2026-04-28 19:55 | 58.02647 | 21.20068 | 41317 ft | 447 kts | 53° |
| 2026-04-28 19:55 | 58.06068 | 21.29864 | 41318 ft | 446 kts | 53° |
| 2026-04-28 19:56 | 58.09481 | 21.39677 | 41312 ft | 447 kts | 54° |
| 2026-04-28 19:56 | 58.12871 | 21.49462 | 41310 ft | 447 kts | 54° |
| 2026-04-28 19:57 | 58.16278 | 21.59339 | 41305 ft | 448 kts | 54° |
| 2026-04-28 19:57 | 58.19675 | 21.69230 | 41301 ft | 448 kts | 54° |
| 2026-04-28 19:58 | 58.23070 | 21.79154 | 41291 ft | 448 kts | 54° |
| 2026-04-28 19:58 | 58.26458 | 21.89100 | 41295 ft | 448 kts | 54° |
| 2026-04-28 19:59 | 58.29815 | 21.98997 | 41296 ft | 448 kts | 54° |
| 2026-04-28 19:59 | 58.33186 | 22.08977 | 41288 ft | 449 kts | 54° |
| 2026-04-28 20:00 | 58.36554 | 22.18988 | 41278 ft | 448 kts | 54° |
| 2026-04-28 20:00 | 58.39909 | 22.29006 | 41302 ft | 448 kts | 55° |
| 2026-04-28 20:01 | 58.43260 | 22.39051 | 41287 ft | 449 kts | 55° |
| 2026-04-28 20:01 | 58.46609 | 22.49134 | 41264 ft | 449 kts | 55° |
| 2026-04-28 20:02 | 58.49949 | 22.59236 | 41271 ft | 449 kts | 55° |
| 2026-04-28 20:02 | 58.51603 | 22.64251 | 41086 ft | 453 kts | 55° |
| 2026-04-28 20:02 | 58.53292 | 22.69382 | 40528 ft | 454 kts | 55° |
| 2026-04-28 20:02 | 58.54966 | 22.74485 | 39815 ft | 453 kts | 55° |
| 2026-04-28 20:03 | 58.56644 | 22.79607 | 39118 ft | 452 kts | 55° |
| 2026-04-28 20:03 | 58.58314 | 22.84720 | 38281 ft | 452 kts | 55° |
| 2026-04-28 20:03 | 58.59975 | 22.89816 | 37486 ft | 449 kts | 55° |
| 2026-04-28 20:03 | 58.61068 | 22.93175 | 36949 ft | 448 kts | 55° |
| 2026-04-28 20:04 | 58.63252 | 22.99899 | 35893 ft | 445 kts | 55° |
| 2026-04-28 20:04 | 58.64887 | 23.04947 | 35026 ft | 445 kts | 55° |
| 2026-04-28 20:04 | 58.65989 | 23.08352 | 34431 ft | 445 kts | 55° |
| 2026-04-28 20:04 | 58.67601 | 23.13343 | 33368 ft | 445 kts | 55° |
| 2026-04-28 20:05 | 58.69248 | 23.18454 | 32352 ft | 443 kts | 55° |
| 2026-04-28 20:05 | 58.70846 | 23.23425 | 31357 ft | 442 kts | 55° |
| 2026-04-28 20:05 | 58.72461 | 23.28461 | 30313 ft | 443 kts | 56° |
| 2026-04-28 20:05 | 58.74080 | 23.33519 | 29214 ft | 441 kts | 56° |
| 2026-04-28 20:06 | 58.75668 | 23.38493 | 28394 ft | 432 kts | 57° |
| 2026-04-28 20:06 | 58.77227 | 23.43388 | 27636 ft | 424 kts | 57° |
| 2026-04-28 20:06 | 58.78719 | 23.48080 | 26903 ft | 417 kts | 57° |
| 2026-04-28 20:06 | 58.80225 | 23.52823 | 26182 ft | 411 kts | 57° |
| 2026-04-28 20:07 | 58.81701 | 23.57481 | 25449 ft | 405 kts | 57° |
| 2026-04-28 20:07 | 58.82659 | 23.60510 | 24963 ft | 402 kts | 57° |
| 2026-04-28 20:07 | 58.84616 | 23.66707 | 23747 ft | 401 kts | 57° |
| 2026-04-28 20:07 | 58.86041 | 23.71231 | 22656 ft | 388 kts | 58° |
| 2026-04-28 20:08 | 58.87428 | 23.75646 | 21420 ft | 382 kts | 58° |
| 2026-04-28 20:08 | 58.88792 | 23.79995 | 20238 ft | 375 kts | 57° |
| 2026-04-28 20:08 | 58.90119 | 23.84232 | 19126 ft | 368 kts | 57° |
| 2026-04-28 20:08 | 58.91431 | 23.88431 | 18008 ft | 361 kts | 57° |
| 2026-04-28 20:09 | 58.92716 | 23.92544 | 16852 ft | 353 kts | 56° |
| 2026-04-28 20:09 | 58.93976 | 23.96585 | 15739 ft | 346 kts | 56° |
| 2026-04-28 20:09 | 58.95207 | 24.00545 | 14678 ft | 340 kts | 56° |
| 2026-04-28 20:09 | 58.96451 | 24.04383 | 13659 ft | 331 kts | 50° |
| 2026-04-28 20:10 | 58.98073 | 24.07326 | 13142 ft | 306 kts | 34° |
| 2026-04-28 20:10 | 58.99868 | 24.09293 | 12545 ft | 291 kts | 23° |
| 2026-04-28 20:10 | 59.01710 | 24.10778 | 11964 ft | 281 kts | 21° |
| 2026-04-28 20:10 | 59.03477 | 24.12135 | 11640 ft | 264 kts | 21° |
| 2026-04-28 20:11 | 59.05151 | 24.13428 | 11213 ft | 254 kts | 21° |
| 2026-04-28 20:11 | 59.06772 | 24.14697 | 10749 ft | 248 kts | 21° |
| 2026-04-28 20:11 | 59.08342 | 24.15942 | 10194 ft | 246 kts | 21° |
| 2026-04-28 20:11 | 59.09928 | 24.17210 | 9565 ft | 246 kts | 21° |
| 2026-04-28 20:12 | 59.11503 | 24.18478 | 9007 ft | 243 kts | 21° |
| 2026-04-28 20:12 | 59.13038 | 24.19720 | 8621 ft | 235 kts | 21° |
| 2026-04-28 20:12 | 59.14522 | 24.20924 | 8285 ft | 226 kts | 21° |
| 2026-04-28 20:12 | 59.15959 | 24.22092 | 7988 ft | 223 kts | 21° |
| 2026-04-28 20:13 | 59.17400 | 24.23265 | 7704 ft | 226 kts | 21° |
| 2026-04-28 20:13 | 59.18869 | 24.24463 | 7415 ft | 229 kts | 21° |
| 2026-04-28 20:13 | 59.20297 | 24.25630 | 7120 ft | 215 kts | 21° |
| 2026-04-28 20:13 | 59.21634 | 24.26725 | 6819 ft | 202 kts | 21° |
| 2026-04-28 20:14 | 59.22895 | 24.27757 | 6532 ft | 191 kts | 21° |
| 2026-04-28 20:14 | 59.24070 | 24.28719 | 6272 ft | 179 kts | 22° |
| 2026-04-28 20:14 | 59.25177 | 24.29626 | 6056 ft | 168 kts | 22° |
| 2026-04-28 20:14 | 59.26254 | 24.30508 | 5874 ft | 168 kts | 22° |
| 2026-04-28 20:15 | 59.27330 | 24.31390 | 5654 ft | 166 kts | 22° |
| 2026-04-28 20:15 | 59.28390 | 24.32260 | 5439 ft | 164 kts | 22° |
| 2026-04-28 20:15 | 59.29455 | 24.33135 | 5092 ft | 169 kts | 22° |
| 2026-04-28 20:15 | 59.30505 | 24.33998 | 4849 ft | 158 kts | 23° |
| 2026-04-28 20:16 | 59.31498 | 24.34816 | 4611 ft | 153 kts | 23° |
| 2026-04-28 20:16 | 59.32474 | 24.35619 | 4413 ft | 151 kts | 23° |
| 2026-04-28 20:16 | 59.33423 | 24.36401 | 4318 ft | 147 kts | 23° |
| 2026-04-28 20:16 | 59.34382 | 24.37190 | 4244 ft | 151 kts | 23° |
| 2026-04-28 20:17 | 59.35366 | 24.38002 | 4171 ft | 155 kts | 22° |
| 2026-04-28 20:17 | 59.36358 | 24.38820 | 4090 ft | 154 kts | 22° |
| 2026-04-28 20:17 | 59.37343 | 24.39634 | 4017 ft | 153 kts | 23° |
| 2026-04-28 20:17 | 59.38324 | 24.40445 | 3916 ft | 154 kts | 23° |
| 2026-04-28 20:18 | 59.39322 | 24.41270 | 3647 ft | 155 kts | 23° |
| 2026-04-28 20:18 | 59.39974 | 24.41809 | 3469 ft | 153 kts | 22° |
| 2026-04-28 20:18 | 59.41091 | 24.43391 | 3086 ft | 151 kts | 56° |
| 2026-04-28 20:18 | 59.41309 | 24.45458 | 2839 ft | 161 kts | 82° |
| 2026-04-28 20:19 | 59.41391 | 24.47662 | 2590 ft | 163 kts | 79° |
| 2026-04-28 20:19 | 59.41439 | 24.49879 | 2340 ft | 161 kts | 82° |
| 2026-04-28 20:19 | 59.41448 | 24.52084 | 2241 ft | 161 kts | 83° |
| 2026-04-28 20:19 | 59.41443 | 24.54300 | 2212 ft | 161 kts | 83° |
| 2026-04-28 20:20 | 59.41431 | 24.56428 | 2201 ft | 150 kts | 83° |
| 2026-04-28 20:20 | 59.41419 | 24.58288 | 2172 ft | 129 kts | 81° |
| 2026-04-28 20:20 | 59.41412 | 24.59969 | 2171 ft | 119 kts | 80° |
| 2026-04-28 20:20 | 59.41406 | 24.61578 | 2149 ft | 119 kts | 80° |
| 2026-04-28 20:21 | 59.41400 | 24.63207 | 1992 ft | 120 kts | 80° |
| 2026-04-28 20:21 | 59.41393 | 24.64829 | 1840 ft | 119 kts | 80° |
| 2026-04-28 20:21 | 59.41386 | 24.66454 | 1682 ft | 119 kts | 81° |
| 2026-04-28 20:21 | 59.41379 | 24.68072 | 1525 ft | 119 kts | 81° |
| 2026-04-28 20:22 | 59.41373 | 24.69706 | 1358 ft | 121 kts | 81° |
| 2026-04-28 20:22 | 59.41367 | 24.71368 | 1176 ft | 122 kts | 83° |
| 2026-04-28 20:22 | 59.41360 | 24.73032 | 993 ft | 122 kts | 84° |
| 2026-04-28 20:22 | 59.41354 | 24.74700 | 817 ft | 122 kts | 85° |
| 2026-04-28 20:23 | 59.41347 | 24.76362 | 637 ft | 121 kts | 86° |
| 2026-04-28 20:23 | 59.41338 | 24.77994 | 465 ft | 120 kts | 86° |
| 2026-04-28 20:23 | 59.41333 | 24.79664 | 329 ft | 125 kts | 86° |
| 2026-04-28 20:23 | 59.41329 | 24.81342 | 175 ft | 121 kts | 86° |
| 2026-04-28 20:24 | 59.41329 | 24.82703 | 159 ft | 54 kts | 92° |
| 2026-04-28 20:24 | 59.41316 | 24.83113 | 161 ft | 4 kts | 96° |
| 2026-04-28 20:24 | 59.41325 | 24.83132 | 161 ft | 0 kts | 17° |
| 2026-04-28 20:24 | 59.41327 | 24.83130 | 161 ft | 1 kts | 353° |
| 2026-04-28 20:25 | 59.41330 | 24.83107 | 160 ft | 3 kts | 260° |
| 2026-04-28 20:25 | 59.41327 | 24.83028 | 160 ft | 8 kts | 269° |
| 2026-04-28 20:25 | 59.41339 | 24.82846 | 160 ft | 20 kts | 284° |
| 2026-04-28 20:25 | 59.41397 | 24.82556 | 160 ft | 23 kts | 305° |
| 2026-04-28 20:26 | 59.41478 | 24.82291 | 161 ft | 23 kts | 298° |
| 2026-04-28 20:26 | 59.41504 | 24.81999 | 161 ft | 22 kts | 271° |
| 2026-04-28 20:26 | 59.41504 | 24.81702 | 161 ft | 22 kts | 270° |
| 2026-04-28 20:26 | 59.41505 | 24.81392 | 161 ft | 24 kts | 269° |
| 2026-04-28 20:27 | 59.41506 | 24.81075 | 161 ft | 23 kts | 270° |
| 2026-04-28 20:27 | 59.41507 | 24.80764 | 161 ft | 22 kts | 270° |
| 2026-04-28 20:27 | 59.41517 | 24.80509 | 161 ft | 16 kts | 284° |
| 2026-04-28 20:27 | 59.41527 | 24.80346 | 161 ft | 10 kts | 269° |
| 2026-04-28 20:28 | 59.41535 | 24.80218 | 161 ft | 9 kts | 310° |
| 2026-04-28 20:28 | 59.41574 | 24.80206 | 161 ft | 0 kts | 0° |
| 2026-04-28 20:28 | 59.41577 | 24.80206 | 161 ft | 2 kts | 0° |
| 2026-04-28 20:28 | 59.41583 | 24.80206 | 161 ft | 0 kts | 0° |
| 2026-04-28 20:29 | 59.41584 | 24.80206 | 161 ft | 0 kts | 0° |